Aérodrome :
LOGIN :

S'inscrire | Disclaimer

   EN    FR    IT 

 










Légende :    VFR   VFR Marginal   IFR   IFR Intensif   IFR Très Intensif
Visi : 
Plafond : 
>= 8 km
>= 3000ft
5 à 8 km
1000 à 3000 ft
1500m à 5 km
500 à 1000 ft
800 à 1500m
200 à 500 ft
< 800m
< 200 ft
Symboles :   Orages  Brouillard  Fortes neiges  Fortes précipitations  Vent > 20 kt
SIGMETs :   Divers  Orages  Givrage  Turbulence  Onde Orograph.  Cendres Volcan.







- Altitude de l'aérodrome : 1260 ft
- Code IATA : LDE
- Voir les cartes d'approche


LFBT - Tarbes / Ossun

DERNIER METAR :
  • 170900Z AUTO VRB02KT 9999 OVC029 15/12 Q1018 NOSIG

METARs EXPIRÉS :
  • 170830Z AUTO VRB02KT 9999 OVC029 14/12 Q1018 NOSIG
  • 170800Z AUTO 31002KT 9999 OVC029 14/13 Q1018 TEMPO 2000 BR
  • 170730Z AUTO 17003KT 140V200 9999 OVC030 13/12 Q1018 TEMPO 2000 BR
  • 170700Z AUTO 18003KT 140V220 9999 OVC030 13/12 Q1018 TEMPO 2000 BR VV///
  • 170630Z AUTO 15004KT 080V190 9999 OVC028 13/12 Q1018 TEMPO 2000 BR VV///

TAF TAF LFBT
Valide du 17 à 06h jusqu'au 18 à 06h UTC


170500Z 1706/1806 VRB02KT 9999 BKN015 BKN030
PROB40
TEMPO 1706/1709 2000 BR
PROB30 1706/1708 0400 FG VV///
BECMG 1709/1711 07005KT
BECMG 1711/1713 SCT020
PROB30
TEMPO 1716/1723 -RA BKN025
BECMG 1718/1720 VRB02KT
PROB40 1803/1806 3000 BR BKN005
PROB30 1803/1806 0500 FG VV///
Pas de NOTAMs connus pour ce terrain.



MET'MAP, la Météo Aéronautique d'un coup d'oeil ! - Copyright ORBIFLY Décembre 2007 - Disclaimer

ORBIFLY MET'MAP TEAM :

Programmation & Développement : Alexandra Zaïnal
Conception & Développement : Baudouin d'Aumeries
Co-Programmation & Développement : Marc-Olivier Méhu
Soutien technique & logistique : Manuel Goepfert

Contact : metmap@orbifly.com




SOURCES & CREDITS :

   NOAA